Time;durP1;ratioP1;P1;durP2;ratioP2;P2;SDS_P1;SDS_P2;PMS_P1;PMS_P2;Temp;Humidity;BMP_temperature;BMP_pressure;BME280_temperature;BME280_humidity;BME280_pressure;Samples;Min_cycle;Max_cycle;Signal;HPM_P1;HPM_P2
2022/07/19 00:01:13;;;;;;;3.77;3.47;;;;;;;20.59;63.12;95505.75;5053492;28;20866;-79
2022/07/19 00:03:40;;;;;;;7.20;4.40;;;;;;;20.52;63.52;95499.44;5053686;28;20920;-81
2022/07/19 00:06:07;;;;;;;4.07;3.77;;;;;;;20.52;63.07;95496.75;5054112;28;20492;-79
2022/07/19 00:08:33;;;;;;;4.73;4.33;;;;;;;20.53;63.57;95501.09;5054080;28;20943;-79
2022/07/19 00:11:00;;;;;;;6.90;3.90;;;;;;;20.54;63.66;95505.44;5053982;28;20449;-79
2022/07/19 00:13:28;;;;;;;6.60;4.10;;;;;;;20.54;64.13;95505.44;5053921;28;20480;-81
2022/07/19 00:15:55;;;;;;;7.13;4.00;;;;;;;20.54;64.08;95510.78;5054436;28;20472;-80
2022/07/19 00:18:22;;;;;;;6.33;4.10;;;;;;;20.55;64.59;95512.44;5053943;28;20457;-79
2022/07/19 00:20:49;;;;;;;7.43;4.13;;;;;;;20.53;65.04;95514.44;5054008;28;20437;-79
2022/07/19 00:23:16;;;;;;;5.10;3.90;;;;;;;20.55;65.20;95505.28;5053967;28;20442;-79
2022/07/19 00:25:42;;;;;;;5.90;3.77;;;;;;;20.59;65.23;95503.91;5053856;28;20485;-79
2022/07/19 00:28:09;;;;;;;8.33;4.03;;;;;;;20.59;65.43;95503.09;5053666;28;20455;-79
2022/07/19 00:30:37;;;;;;;4.07;3.77;;;;;;;20.59;65.46;95503.09;5053820;28;20450;-79
2022/07/19 00:33:08;;;;;;;6.97;3.77;;;;;;;20.61;65.81;95514.41;5053481;28;20441;-79
2022/07/19 00:35:35;;;;;;;4.73;3.93;;;;;;;20.50;66.18;95504.13;5053356;28;20494;-81
2022/07/19 00:38:05;;;;;;;4.37;3.97;;;;;;;20.55;66.40;95504.44;5018470;28;20446;-80
2022/07/19 00:40:31;;;;;;;6.73;4.70;;;;;;;20.56;65.93;95506.09;5053472;28;20450;-79
2022/07/19 00:42:58;;;;;;;5.87;4.57;;;;;;;20.54;66.36;95500.13;5053501;28;20445;-80
2022/07/19 00:45:25;;;;;;;4.63;4.33;;;;;;;20.52;66.53;95507.44;5053604;28;20481;-80
2022/07/19 00:47:53;;;;;;;4.50;4.10;;;;;;;20.54;66.83;95498.28;5053550;28;20446;-80
2022/07/19 00:50:21;;;;;;;4.73;4.33;;;;;;;20.54;66.95;95510.78;5053416;28;20771;-79
2022/07/19 00:52:51;;;;;;;8.17;4.27;;;;;;;20.52;67.20;95499.44;5053425;28;20446;-80
2022/07/19 00:55:19;;;;;;;5.13;4.03;;;;;;;20.42;67.34;95502.34;5052878;28;20455;-79
2022/07/19 00:57:47;;;;;;;4.70;4.30;;;;;;;20.39;67.33;95495.50;5053615;28;20908;-80
2022/07/19 01:00:16;;;;;;;4.53;4.07;;;;;;;20.41;67.26;95506.84;5052943;28;20438;-79
2022/07/19 01:02:43;;;;;;;4.70;4.17;;;;;;;20.38;67.19;95504.50;5053128;28;20438;-80
2022/07/19 01:05:12;;;;;;;4.40;4.10;;;;;;;20.35;67.44;95501.34;5067676;28;20967;-78
2022/07/19 01:07:41;;;;;;;4.13;3.83;;;;;;;20.33;67.79;95498.88;5052950;28;20453;-80
2022/07/19 01:10:11;;;;;;;5.60;4.10;;;;;;;20.33;67.51;95498.88;5018121;28;20445;-79
2022/07/19 01:12:38;;;;;;;4.90;4.23;;;;;;;20.32;67.75;95501.72;5054768;28;20454;-79
2022/07/19 01:15:15;;;;;;;6.60;4.23;;;;;;;20.29;67.64;95502.06;5055214;28;20430;-79
2022/07/19 01:17:42;;;;;;;4.50;4.20;;;;;;;20.21;67.87;95494.91;5056918;28;20923;-80
2022/07/19 01:20:11;;;;;;;13.50;4.90;;;;;;;20.21;68.18;95497.56;5057125;28;20446;-80
2022/07/19 01:22:39;;;;;;;4.73;4.33;;;;;;;20.14;68.79;95496.63;5057333;28;20449;-80
2022/07/19 01:25:07;;;;;;;7.50;3.80;;;;;;;20.07;69.14;95495.66;5057205;28;20447;-79
2022/07/19 01:27:39;;;;;;;4.87;4.23;;;;;;;20.00;69.27;95495.53;5022271;28;20448;-79
2022/07/19 01:30:13;;;;;;;4.97;4.27;;;;;;;19.92;69.99;95500.03;5057189;28;20449;-78
2022/07/19 01:32:40;;;;;;;5.30;4.83;;;;;;;19.78;70.37;95493.59;5056794;28;20437;-79
2022/07/19 01:35:08;;;;;;;4.40;4.10;;;;;;;19.73;70.73;95491.47;5056737;28;20442;-79
2022/07/19 01:37:35;;;;;;;7.67;3.90;;;;;;;19.71;70.99;95496.13;5057174;28;20445;-79
2022/07/19 01:40:05;;;;;;;9.80;4.73;;;;;;;19.71;70.99;95493.47;5057030;28;20452;-80
2022/07/19 01:42:32;;;;;;;13.00;4.30;;;;;;;19.67;71.30;95492.16;5071111;28;20461;-80
2022/07/19 01:44:59;;;;;;;3.90;3.60;;;;;;;19.62;71.41;95488.31;5056770;28;20990;-79
2022/07/19 01:47:26;;;;;;;4.50;4.10;;;;;;;19.58;71.82;95489.66;5057021;28;20456;-79
2022/07/19 01:49:53;;;;;;;4.07;3.77;;;;;;;19.54;71.87;95483.84;5056503;28;20928;-78
2022/07/19 01:52:20;;;;;;;7.40;4.17;;;;;;;19.51;71.99;95489.50;5056893;28;20446;-79
2022/07/19 01:54:46;;;;;;;4.03;3.53;;;;;;;19.36;72.79;95485.84;5037917;28;20430;-79
2022/07/19 01:57:15;;;;;;;4.37;3.97;;;;;;;19.35;73.08;95494.84;5056775;28;21466;-79
2022/07/19 01:59:41;;;;;;;4.93;3.77;;;;;;;19.37;73.29;95490.19;5056175;28;20453;-80
2022/07/19 02:02:08;;;;;;;4.67;3.53;;;;;;;19.40;73.24;95492.53;5056721;28;20445;-79
2022/07/19 02:04:36;;;;;;;4.33;3.97;;;;;;;19.48;72.80;95498.66;5056402;28;20441;-80
2022/07/19 02:07:03;;;;;;;5.87;3.67;;;;;;;19.37;73.17;95495.50;5054063;28;20983;-79
2022/07/19 02:09:30;;;;;;;3.63;3.40;;;;;;;19.47;72.94;95502.31;5056216;28;20549;-79
2022/07/19 02:11:57;;;;;;;4.63;3.93;;;;;;;19.43;72.91;95501.00;5021148;28;20463;-79
2022/07/19 02:14:25;;;;;;;7.03;4.10;;;;;;;19.45;72.87;95498.16;5055981;28;20466;-79
2022/07/19 02:16:52;;;;;;;5.90;3.60;;;;;;;19.48;72.69;95501.31;5056128;28;20445;-80
2022/07/19 02:19:20;;;;;;;4.37;3.40;;;;;;;19.56;72.68;95503.16;5054265;28;20437;-80
2022/07/19 02:21:47;;;;;;;5.50;3.93;;;;;;;19.57;72.35;95498.66;5056382;28;20504;-82
2022/07/19 02:24:14;;;;;;;6.50;4.10;;;;;;;19.62;72.39;95499.81;5055988;28;20959;-79
2022/07/19 02:26:41;;;;;;;4.30;4.00;;;;;;;19.61;72.33;95494.66;5056107;28;20489;-80
2022/07/19 02:29:07;;;;;;;3.80;3.33;;;;;;;19.59;72.79;95499.31;5056000;28;20465;-79
2022/07/19 02:31:36;;;;;;;4.13;3.73;;;;;;;19.63;72.55;95506.78;5055835;28;20454;-81
2022/07/19 02:34:03;;;;;;;3.53;3.30;;;;;;;19.66;72.79;95506.47;5056148;28;20464;-80
2022/07/19 02:36:30;;;;;;;4.50;3.60;;;;;;;19.69;72.69;95511.47;5055592;28;20457;-79
2022/07/19 02:38:58;;;;;;;7.17;4.97;;;;;;;19.72;72.22;95502.28;5055476;28;20454;-80
2022/07/19 02:41:25;;;;;;;3.47;3.17;;;;;;;19.75;72.21;95504.59;5055899;28;20446;-79
2022/07/19 02:43:51;;;;;;;3.90;3.40;;;;;;;19.74;71.78;95502.94;5055830;28;20445;-80
2022/07/19 02:46:18;;;;;;;4.07;3.67;;;;;;;19.76;72.02;95509.75;5055814;28;20497;-78
2022/07/19 02:48:46;;;;;;;3.90;3.60;;;;;;;19.77;72.17;95516.75;5055662;28;20454;-79
2022/07/19 02:51:13;;;;;;;91.93;85.43;;;;;;;19.72;72.09;95500.47;5055834;28;20450;-79
2022/07/19 02:53:40;;;;;;;5.80;3.63;;;;;;;19.68;72.46;95506.31;5055374;28;20445;-79
2022/07/19 02:56:07;;;;;;;3.87;3.57;;;;;;;19.63;72.06;95512.13;5055797;28;20449;-79
2022/07/19 02:58:34;;;;;;;7.80;3.60;;;;;;;19.61;72.50;95514.13;5055397;28;20515;-79
2022/07/19 03:01:01;;;;;;;5.07;3.47;;;;;;;19.58;72.46;95514.47;5055526;28;20446;-79
2022/07/19 03:03:47;;;;;;;4.60;3.67;;;;;;;19.57;72.75;95518.13;5065433;28;20989;-79
2022/07/19 03:06:17;;;;;;;4.50;3.60;;;;;;;19.57;73.23;95515.47;5075662;28;20513;-80
2022/07/19 03:08:44;;;;;;;3.73;3.43;;;;;;;19.54;73.18;95520.31;5075015;28;20445;-79
2022/07/19 03:11:11;;;;;;;3.80;3.23;;;;;;;19.50;73.62;95515.28;5074546;28;20444;-78
2022/07/19 03:13:38;;;;;;;6.67;3.70;;;;;;;19.49;73.22;95521.59;5075217;28;20472;-80
2022/07/19 03:16:05;;;;;;;5.83;3.63;;;;;;;19.42;73.29;95509.16;5074807;28;20449;-78
2022/07/19 03:18:32;;;;;;;3.73;3.43;;;;;;;19.40;73.50;95517.31;5075151;28;20456;-80
2022/07/19 03:20:59;;;;;;;8.90;4.13;;;;;;;19.37;73.85;95512.31;5074754;28;20441;-79
2022/07/19 03:23:28;;;;;;;4.03;3.63;;;;;;;19.40;73.75;95516.47;5074663;28;20503;-78
2022/07/19 03:25:55;;;;;;;3.40;3.20;;;;;;;19.42;74.10;95509.16;5074999;28;20484;-79
2022/07/19 03:28:22;;;;;;;5.23;3.33;;;;;;;19.47;74.01;95520.13;5075110;28;20455;-79
2022/07/19 03:30:48;;;;;;;3.43;3.13;;;;;;;19.59;73.60;95521.44;5074656;28;20456;-81
2022/07/19 03:33:15;;;;;;;3.70;3.40;;;;;;;19.77;72.76;95516.75;5074579;28;20445;-80
2022/07/19 03:35:43;;;;;;;5.33;3.43;;;;;;;20.03;71.83;95529.00;5073571;28;20484;-80
2022/07/19 03:38:10;;;;;;;5.23;3.10;;;;;;;20.31;70.31;95522.19;5074817;28;20481;-81
2022/07/19 03:40:39;;;;;;;3.60;3.30;;;;;;;20.69;68.82;95527.69;5074577;28;20441;-80
2022/07/19 03:43:05;;;;;;;3.23;2.93;;;;;;;20.90;67.29;95522.53;5055687;28;20440;-79
2022/07/19 03:45:32;;;;;;;9.63;3.50;;;;;;;20.98;67.47;95530.47;5074113;28;20448;-81
2022/07/19 03:48:00;;;;;;;4.33;3.50;;;;;;;21.07;67.03;95530.41;5074108;28;20488;-80
2022/07/19 03:50:27;;;;;;;4.47;3.23;;;;;;;21.10;66.84;95532.72;5074263;28;20444;-80
2022/07/19 03:52:54;;;;;;;5.40;3.23;;;;;;;21.29;66.78;95537.59;5074277;28;20441;-80
2022/07/19 03:55:20;;;;;;;3.10;2.90;;;;;;;21.68;65.75;95533.88;5073895;28;20475;-81
2022/07/19 03:57:49;;;;;;;6.27;3.37;;;;;;;22.08;63.84;95541.50;5074041;28;20543;-80
2022/07/19 04:00:16;;;;;;;5.00;3.70;;;;;;;22.47;62.40;95538.50;5074382;28;20449;-80
2022/07/19 04:02:43;;;;;;;3.33;3.13;;;;;;;22.94;60.45;95542.56;5073646;28;20464;-80
2022/07/19 04:05:10;;;;;;;6.10;3.00;;;;;;;23.27;59.85;95555.44;5073898;28;20441;-80
2022/07/19 04:07:36;;;;;;;4.50;3.30;;;;;;;23.55;58.39;95547.44;5073651;28;20486;-81
2022/07/19 04:10:04;;;;;;;3.90;3.60;;;;;;;23.81;57.31;95546.84;5073772;28;21114;-81
2022/07/19 04:12:31;;;;;;;3.53;3.23;;;;;;;24.09;56.88;95545.78;5072982;28;20456;-79
2022/07/19 04:15:09;;;;;;;4.93;3.13;;;;;;;24.36;55.71;95544.09;5073463;28;20448;-81
2022/07/19 04:17:36;;;;;;;4.40;3.00;;;;;;;24.41;55.77;95543.50;5073541;28;20924;-81
2022/07/19 04:20:03;;;;;;;5.40;3.70;;;;;;;24.61;55.06;95541.75;5074106;28;20463;-84
2022/07/19 04:22:30;;;;;;;5.40;3.40;;;;;;;24.88;54.72;95550.72;5073243;28;20448;-82
2022/07/19 04:24:57;;;;;;;3.67;3.33;;;;;;;25.11;53.32;95538.78;5038379;28;20449;-80
2022/07/19 04:27:24;;;;;;;10.03;4.33;;;;;;;25.33;52.47;95538.41;5073327;28;21001;-80
2022/07/19 04:29:50;;;;;;;4.63;3.13;;;;;;;25.54;52.76;95536.56;5073624;28;20448;-80
2022/07/19 04:32:19;;;;;;;5.90;3.70;;;;;;;25.71;51.68;95540.50;5073669;28;20441;-80
2022/07/19 04:34:45;;;;;;;3.93;3.40;;;;;;;25.75;51.05;95541.75;5073037;28;20453;-80
2022/07/19 04:37:12;;;;;;;4.93;3.20;;;;;;;25.78;50.81;95549.41;5073019;28;20965;-81
2022/07/19 04:39:39;;;;;;;4.77;2.80;;;;;;;25.80;50.56;95538.44;5073051;28;20830;-79
2022/07/19 04:42:06;;;;;;;3.70;3.40;;;;;;;25.85;50.75;95536.78;5073176;28;20506;-79
2022/07/19 04:44:32;;;;;;;7.80;3.67;;;;;;;25.87;52.17;95540.09;5073297;28;20449;-81
2022/07/19 04:46:59;;;;;;;5.10;2.93;;;;;;;25.94;50.54;95532.00;5072093;28;21005;-77
2022/07/19 04:49:27;;;;;;;2.90;2.60;;;;;;;25.77;50.29;95538.88;5037836;28;20452;-79
2022/07/19 04:51:54;;;;;;;3.30;2.70;;;;;;;25.85;50.28;95531.41;5071683;28;20879;-80
2022/07/19 04:54:21;;;;;;;4.67;3.00;;;;;;;26.00;50.38;95538.41;5073072;28;20453;-79
2022/07/19 04:56:48;;;;;;;3.07;2.87;;;;;;;26.12;49.71;95547.50;5073156;28;20445;-81
2022/07/19 04:59:15;;;;;;;3.30;3.00;;;;;;;26.29;49.41;95548.69;5064124;28;20565;-78
2022/07/19 05:01:42;;;;;;;8.80;2.87;;;;;;;25.92;49.84;95548.34;5072514;28;20448;-80
2022/07/19 05:04:09;;;;;;;3.93;2.93;;;;;;;25.90;50.43;95555.81;5071404;28;20452;-79
2022/07/19 05:06:37;;;;;;;5.30;3.13;;;;;;;26.03;50.21;95551.47;5072450;28;20477;-80
2022/07/19 05:09:04;;;;;;;4.90;2.97;;;;;;;25.87;50.50;95545.47;5055934;28;20449;-80
2022/07/19 05:11:30;;;;;;;5.70;3.67;;;;;;;25.13;51.90;95548.28;5054018;28;20460;-80
2022/07/19 05:13:57;;;;;;;4.83;3.40;;;;;;;24.41;55.07;95548.88;5068589;28;20496;-81
2022/07/19 05:16:24;;;;;;;4.47;2.87;;;;;;;24.90;53.84;95550.50;5068851;28;20456;-80
2022/07/19 05:18:51;;;;;;;4.10;3.07;;;;;;;25.09;53.97;95547.03;5071392;28;20942;-79
2022/07/19 05:21:18;;;;;;;3.80;3.40;;;;;;;25.26;53.19;95542.13;5071920;28;20451;-80
2022/07/19 05:23:46;;;;;;;6.90;3.70;;;;;;;24.64;54.75;95541.34;5072071;28;20445;-80
2022/07/19 05:26:12;;;;;;;3.50;3.20;;;;;;;25.09;53.51;95541.69;5071815;28;20445;-80
2022/07/19 05:28:39;;;;;;;3.03;2.83;;;;;;;24.99;53.39;95542.06;5071577;28;20449;-80
2022/07/19 05:31:06;;;;;;;3.27;2.97;;;;;;;25.09;53.76;95546.22;5072086;28;20818;-79
2022/07/19 05:33:33;;;;;;;3.57;3.27;;;;;;;25.31;53.57;95543.16;5071337;28;20445;-80
2022/07/19 05:36:00;;;;;;;5.30;3.03;;;;;;;25.57;52.88;95544.22;5071858;28;20445;-81
2022/07/19 05:38:28;;;;;;;5.40;3.40;;;;;;;25.88;51.77;95541.75;5052927;28;20433;-79
2022/07/19 05:40:56;;;;;;;3.87;2.80;;;;;;;26.24;51.13;95556.56;5071763;28;20464;-80
2022/07/19 05:43:23;;;;;;;2.83;2.63;;;;;;;26.24;50.23;95545.78;5071344;28;20451;-80
2022/07/19 05:45:50;;;;;;;11.17;3.57;;;;;;;26.51;49.27;95547.41;5071506;28;20436;-81
2022/07/19 05:48:17;;;;;;;8.47;3.03;;;;;;;26.00;49.53;95544.59;5071579;28;20495;-81
2022/07/19 05:50:43;;;;;;;2.70;2.50;;;;;;;26.19;49.44;95543.75;5071411;28;20448;-80
2022/07/19 05:53:10;;;;;;;4.47;3.00;;;;;;;26.51;50.38;95551.97;5071694;28;20445;-81
2022/07/19 05:55:38;;;;;;;3.00;2.80;;;;;;;26.41;48.73;95546.22;5071567;28;20441;-80
2022/07/19 05:58:06;;;;;;;3.60;2.60;;;;;;;26.70;49.62;95543.00;5072123;28;20448;-81
2022/07/19 06:00:33;;;;;;;3.23;2.67;;;;;;;26.67;48.40;95523.75;5074964;28;20444;-80
2022/07/19 06:03:00;;;;;;;2.77;2.57;;;;;;;27.13;48.63;95545.06;5074739;28;20485;-80
2022/07/19 06:05:27;;;;;;;4.50;3.70;;;;;;;27.31;47.14;95538.94;5056359;28;20452;-81
2022/07/19 06:07:53;;;;;;;5.03;3.07;;;;;;;27.39;47.12;95539.50;5074756;28;20480;-79
2022/07/19 06:10:20;;;;;;;5.93;3.17;;;;;;;27.51;47.32;95534.22;5074834;28;20444;-80
2022/07/19 06:12:47;;;;;;;4.00;3.60;;;;;;;27.61;46.59;95531.84;5074823;28;20473;-81
2022/07/19 06:15:15;;;;;;;8.23;3.47;;;;;;;27.67;45.64;95536.41;5074635;28;20456;-79
2022/07/19 06:17:42;;;;;;;5.23;3.20;;;;;;;27.79;46.01;95530.31;5074794;28;20444;-80
2022/07/19 06:20:10;;;;;;;4.10;3.40;;;;;;;27.32;46.51;95530.63;5074887;28;20807;-80
2022/07/19 06:22:37;;;;;;;4.80;3.03;;;;;;;27.64;46.96;95526.06;5074717;28;20439;-81
2022/07/19 06:25:06;;;;;;;7.77;3.57;;;;;;;27.87;45.54;95530.00;5074983;28;20813;-81
2022/07/19 06:27:33;;;;;;;5.73;3.93;;;;;;;28.09;44.71;95533.94;5039998;28;20615;-80
2022/07/19 06:30:00;;;;;;;4.27;3.47;;;;;;;28.24;44.89;95529.03;5074872;28;20455;-80
2022/07/19 06:32:29;;;;;;;3.23;2.77;;;;;;;28.47;45.03;95525.66;5074544;28;20516;-79
2022/07/19 06:34:55;;;;;;;4.27;2.90;;;;;;;28.20;44.50;95525.09;5074571;28;20449;-80
2022/07/19 06:37:22;;;;;;;3.63;3.33;;;;;;;28.48;45.39;95521.09;5074295;28;20451;-81
2022/07/19 06:39:49;;;;;;;3.40;3.10;;;;;;;28.74;45.10;95523.47;5039322;28;20968;-80
2022/07/19 06:42:16;;;;;;;6.03;3.03;;;;;;;28.45;43.93;95524.25;5074248;28;20445;-80
2022/07/19 06:44:43;;;;;;;3.60;3.07;;;;;;;28.75;44.31;95527.81;5074085;28;20449;-80
2022/07/19 06:47:09;;;;;;;3.13;2.93;;;;;;;28.24;44.31;95525.47;5055201;28;20484;-79
2022/07/19 06:49:38;;;;;;;3.67;3.37;;;;;;;28.10;45.68;95532.06;5074329;28;20448;-80
2022/07/19 06:52:04;;;;;;;3.03;2.80;;;;;;;28.32;45.71;95522.50;5074175;28;20440;-80
2022/07/19 06:54:31;;;;;;;5.43;3.30;;;;;;;28.63;44.93;95524.25;5073880;28;20818;-80
2022/07/19 06:56:58;;;;;;;6.50;2.90;;;;;;;28.57;45.18;95525.94;5074302;28;20467;-80
2022/07/19 06:59:25;;;;;;;2.80;2.60;;;;;;;28.63;43.48;95516.13;5074075;28;20477;-81
2022/07/19 07:01:52;;;;;;;3.83;3.10;;;;;;;28.66;43.23;95521.09;5074185;28;20444;-80
2022/07/19 07:04:19;;;;;;;4.23;2.93;;;;;;;28.54;42.69;95521.00;5073841;28;20511;-80
2022/07/19 07:06:47;;;;;;;4.93;2.90;;;;;;;28.48;44.10;95526.50;5074085;28;20456;-80
2022/07/19 07:09:14;;;;;;;4.90;3.50;;;;;;;28.20;43.67;95519.69;5072995;28;20451;-80
2022/07/19 07:11:41;;;;;;;4.53;3.20;;;;;;;28.02;44.97;95525.06;5073376;28;20832;-81
2022/07/19 07:14:08;;;;;;;5.20;3.20;;;;;;;27.91;43.92;95525.81;5073856;28;20479;-80
2022/07/19 07:16:34;;;;;;;3.60;3.30;;;;;;;27.71;44.01;95512.50;5073847;28;20517;-81
2022/07/19 07:19:01;;;;;;;5.67;3.33;;;;;;;27.82;42.96;95517.19;5073605;28;20452;-82
2022/07/19 07:21:29;;;;;;;3.40;3.00;;;;;;;28.12;44.55;95517.31;5038542;28;21070;-80
2022/07/19 07:23:58;;;;;;;11.00;3.27;;;;;;;28.03;43.12;95513.22;5038779;28;20449;-80
2022/07/19 07:26:24;;;;;;;3.53;3.20;;;;;;;28.27;42.82;95514.25;5073441;28;20457;-80
2022/07/19 07:28:51;;;;;;;3.83;2.80;;;;;;;28.59;42.41;95512.22;5073370;28;20480;-80
2022/07/19 07:31:18;;;;;;;3.40;3.10;;;;;;;28.69;39.86;95507.94;5073395;28;20448;-80
2022/07/19 07:33:45;;;;;;;7.17;3.17;;;;;;;28.91;41.92;95511.00;5073371;28;20859;-80
2022/07/19 07:36:12;;;;;;;3.23;3.03;;;;;;;29.11;40.17;95515.28;5073166;28;20455;-78
2022/07/19 07:38:38;;;;;;;4.33;3.27;;;;;;;29.31;40.78;95510.41;5073833;28;20490;-81
2022/07/19 07:41:07;;;;;;;6.33;3.23;;;;;;;28.98;39.56;95517.16;5073294;28;20448;-80
2022/07/19 07:43:34;;;;;;;5.60;3.20;;;;;;;29.06;41.35;95510.59;5073377;28;20444;-81
2022/07/19 07:46:00;;;;;;;5.30;3.17;;;;;;;29.16;38.31;95510.84;5037393;28;20787;-80
2022/07/19 07:48:27;;;;;;;3.50;3.20;;;;;;;29.38;38.29;95508.44;5072912;28;20492;-81
2022/07/19 07:50:54;;;;;;;4.17;3.40;;;;;;;29.64;40.20;95509.09;5072966;28;20432;-80
2022/07/19 07:53:21;;;;;;;3.20;2.90;;;;;;;29.71;38.21;95507.09;5073106;28;20519;-77
2022/07/19 07:55:48;;;;;;;6.37;3.00;;;;;;;29.84;37.67;95498.75;5073187;28;20449;-78
2022/07/19 07:58:16;;;;;;;2.80;2.60;;;;;;;30.09;38.88;95499.38;5072522;28;20451;-78
2022/07/19 08:00:43;;;;;;;3.77;2.87;;;;;;;30.18;35.11;95500.66;5037398;28;20490;-78
2022/07/19 08:03:09;;;;;;;2.60;2.50;;;;;;;29.49;36.10;95498.72;5053814;28;20433;-80
2022/07/19 08:05:36;;;;;;;3.40;3.10;;;;;;;28.90;34.50;95487.72;5072347;28;20806;-79
2022/07/19 08:08:03;;;;;;;9.70;3.00;;;;;;;28.73;36.43;95488.56;5072659;28;20537;-77
2022/07/19 08:10:33;;;;;;;3.50;3.20;;;;;;;28.70;34.56;95492.56;5072591;28;20471;-78
2022/07/19 08:13:00;;;;;;;3.20;3.00;;;;;;;28.08;36.12;95497.22;5072549;28;20819;-80
2022/07/19 08:15:28;;;;;;;3.83;2.90;;;;;;;28.49;35.74;95490.34;5037321;28;20851;-77
2022/07/19 08:17:55;;;;;;;3.40;2.80;;;;;;;28.60;33.00;95493.06;5072522;28;20464;-79
2022/07/19 08:20:22;;;;;;;2.70;2.50;;;;;;;28.02;35.25;95490.00;5072388;28;20441;-77
2022/07/19 08:22:49;;;;;;;3.60;3.30;;;;;;;28.21;35.70;95493.53;5072450;28;20443;-78
2022/07/19 08:25:16;;;;;;;4.70;2.70;;;;;;;28.30;34.59;95493.03;5072721;28;20453;-78
2022/07/19 08:27:44;;;;;;;5.83;3.00;;;;;;;28.40;35.86;95492.53;5072490;28;20489;-77
2022/07/19 08:30:12;;;;;;;3.10;2.90;;;;;;;28.40;34.70;95494.41;5072187;28;20455;-76
2022/07/19 08:32:41;;;;;;;2.83;2.63;;;;;;;28.47;34.33;95470.84;5036871;28;20849;-79
2022/07/19 08:35:10;;;;;;;2.80;2.60;;;;;;;28.44;34.83;95487.50;5072109;28;20505;-79
2022/07/19 08:37:37;;;;;;;5.40;2.93;;;;;;;28.66;34.69;95481.38;5072485;28;20445;-79
2022/07/19 08:40:06;;;;;;;3.33;3.10;;;;;;;28.84;34.52;95475.09;5072038;28;20448;-79
2022/07/19 08:42:33;;;;;;;3.63;3.33;;;;;;;28.24;35.51;95483.16;5072258;28;20441;-80
2022/07/19 08:45:02;;;;;;;3.17;2.97;;;;;;;28.30;37.60;95482.22;5072242;28;20449;-79
2022/07/19 08:47:30;;;;;;;4.93;3.27;;;;;;;28.12;35.73;95486.78;5072419;28;20441;-79
2022/07/19 08:50:00;;;;;;;3.00;2.80;;;;;;;28.03;34.37;95483.53;5036975;28;20479;-80
2022/07/19 08:52:27;;;;;;;6.33;3.53;;;;;;;28.32;34.52;95480.13;5072267;28;20506;-79
2022/07/19 08:54:55;;;;;;;5.77;3.20;;;;;;;28.42;34.71;95478.78;5037062;28;20452;-79
2022/07/19 09:00:08;;;;;;;4.60;3.07;;;;;;;28.24;34.35;95477.75;5071803;28;20432;-79
2022/07/19 09:02:34;;;;;;;3.53;3.23;;;;;;;28.45;35.39;95473.75;5053006;28;20433;-79
2022/07/19 09:05:05;;;;;;;4.50;2.80;;;;;;;28.65;35.91;95481.63;5071902;28;20440;-79
2022/07/19 09:07:32;;;;;;;3.40;2.70;;;;;;;28.70;35.23;95481.75;5052929;28;20472;-80
2022/07/19 09:10:17;;;;;;;8.00;3.17;;;;;;;28.54;34.18;95475.09;5071920;28;20490;-78
2022/07/19 09:13:05;;;;;;;9.10;3.90;;;;;;;28.53;34.76;95472.63;5071951;28;20484;-79
2022/07/19 09:15:54;;;;;;;4.23;3.10;;;;;;;28.80;33.43;95471.22;5071862;28;20449;-80
2022/07/19 09:18:22;;;;;;;4.30;2.90;;;;;;;28.97;35.09;95466.03;5029494;28;20442;-78
2022/07/19 09:20:52;;;;;;;3.37;3.00;;;;;;;28.50;35.56;95473.06;5029436;28;20852;-79
2022/07/19 09:23:19;;;;;;;5.53;2.60;;;;;;;28.64;36.07;95467.28;5029399;28;20435;-79
2022/07/19 09:25:49;;;;;;;5.60;3.40;;;;;;;28.87;35.49;95463.84;5029579;28;20439;-79
2022/07/19 09:28:17;;;;;;;2.53;2.33;;;;;;;28.52;36.44;95473.66;5029204;28;20482;-79
2022/07/19 09:30:46;;;;;;;3.47;3.17;;;;;;;28.18;36.64;95470.53;5029362;28;20457;-79
2022/07/19 09:33:15;;;;;;;2.73;2.53;;;;;;;28.10;34.85;95468.13;5030327;28;20454;-79
2022/07/19 09:35:45;;;;;;;5.10;3.77;;;;;;;28.02;36.87;95474.63;5033192;28;20446;-79
2022/07/19 09:38:25;;;;;;;3.20;2.83;;;;;;;27.91;36.78;95464.59;5033212;28;20460;-77
2022/07/19 09:40:54;;;;;;;3.40;3.10;;;;;;;28.17;35.86;95460.78;5033408;28;20872;-78
2022/07/19 09:43:22;;;;;;;3.97;2.87;;;;;;;28.30;35.65;95454.41;5033157;28;20442;-79
2022/07/19 09:45:49;;;;;;;2.90;2.70;;;;;;;28.24;34.53;95456.16;5033138;28;20508;-77
2022/07/19 09:48:16;;;;;;;3.10;2.73;;;;;;;28.34;37.02;95461.03;5033034;28;20556;-77
2022/07/19 09:50:46;;;;;;;3.47;3.20;;;;;;;28.28;34.59;95461.91;5032806;28;20447;-78
2022/07/19 09:53:14;;;;;;;6.97;2.77;;;;;;;28.40;36.40;95453.91;5032834;28;20484;-78
2022/07/19 09:55:42;;;;;;;3.23;2.77;;;;;;;28.52;36.45;95457.47;5060091;28;20448;-78
2022/07/19 09:58:10;;;;;;;5.27;3.77;;;;;;;28.56;36.66;95458.66;5039788;28;20472;-78
2022/07/19 10:00:39;;;;;;;3.17;2.97;;;;;;;28.37;34.88;95450.59;5075087;28;20456;-78
2022/07/19 10:03:08;;;;;;;4.27;2.73;;;;;;;28.39;35.42;95453.06;5074933;28;20502;-77
2022/07/19 10:05:35;;;;;;;3.37;3.07;;;;;;;28.52;36.88;95443.97;5074859;28;20954;-79
2022/07/19 10:08:03;;;;;;;3.67;3.37;;;;;;;28.69;34.43;95450.41;5075088;28;20554;-79
2022/07/19 10:10:31;;;;;;;4.03;3.17;;;;;;;28.62;34.15;95455.03;5074848;28;20449;-78
2022/07/19 10:12:59;;;;;;;3.30;2.87;;;;;;;27.99;35.24;95452.66;5074819;28;20476;-78
2022/07/19 10:15:27;;;;;;;3.90;3.00;;;;;;;27.55;36.13;95441.06;5075105;28;20451;-78
2022/07/19 10:18:11;;;;;;;5.30;3.17;;;;;;;27.77;35.29;95445.03;5074810;28;20941;-79
2022/07/19 10:20:40;;;;;;;4.63;3.07;;;;;;;27.87;34.78;95439.13;5032471;28;20532;-79
2022/07/19 10:23:07;;;;;;;3.40;3.20;;;;;;;27.97;35.61;95438.59;4999312;28;20477;-78
2022/07/19 10:25:43;;;;;;;3.93;3.10;;;;;;;28.18;34.77;95434.59;5032672;28;20937;-78
2022/07/19 10:28:30;;;;;;;5.83;2.80;;;;;;;28.37;34.06;95439.81;5032281;28;20992;-78
2022/07/19 10:30:57;;;;;;;3.53;2.90;;;;;;;28.14;34.33;95441.50;5031991;28;20447;-79
2022/07/19 10:33:29;;;;;;;3.40;2.70;;;;;;;27.71;35.53;95426.19;5031968;28;20481;-79
2022/07/19 10:35:56;;;;;;;3.90;3.10;;;;;;;27.79;34.99;95425.09;5032255;28;20459;-78
2022/07/19 10:38:23;;;;;;;2.90;2.70;;;;;;;28.01;36.14;95423.59;5032269;28;20497;-78
2022/07/19 10:40:51;;;;;;;5.73;3.00;;;;;;;27.82;34.78;95430.88;5032180;28;20438;-79
2022/07/19 10:43:20;;;;;;;4.10;3.70;;;;;;;27.79;35.64;95427.81;5032191;28;20454;-78
2022/07/19 10:46:10;;;;;;;3.07;2.87;;;;;;;27.79;35.15;95417.00;5031910;28;20556;-78
2022/07/19 10:48:38;;;;;;;4.53;2.97;;;;;;;28.04;34.79;95418.56;5032092;28;20479;-79
2022/07/19 10:51:06;;;;;;;3.30;3.10;;;;;;;28.13;36.95;95420.97;5015582;28;20470;-78
2022/07/19 10:54:05;;;;;;;3.90;3.10;;;;;;;28.01;35.89;95419.00;5032219;28;20946;-78
2022/07/19 10:56:58;;;;;;;3.00;2.80;;;;;;;27.94;34.34;95410.19;5031900;28;20501;-79
2022/07/19 10:59:38;;;;;;;4.77;3.70;;;;;;;27.86;35.43;95415.88;5074051;28;20442;-79
2022/07/19 11:02:07;;;;;;;4.40;3.67;;;;;;;27.70;35.84;95406.50;5073883;28;20808;-79
2022/07/19 11:04:35;;;;;;;3.90;3.60;;;;;;;27.53;36.56;95413.50;5073946;28;20500;-79
2022/07/19 11:07:17;;;;;;;9.10;3.43;;;;;;;27.44;36.96;95401.34;5073940;28;20437;-78
2022/07/19 11:09:49;;;;;;;3.77;3.40;;;;;;;27.70;37.22;95401.09;5073628;28;20483;-79
2022/07/19 11:12:35;;;;;;;8.23;3.70;;;;;;;27.82;36.09;95405.78;5073467;28;20807;-75
2022/07/19 11:15:05;;;;;;;3.60;3.40;;;;;;;27.42;38.15;95403.44;5073588;28;20452;-79
2022/07/19 11:17:34;;;;;;;3.27;3.07;;;;;;;26.90;38.26;95402.00;5073744;28;20950;-79
2022/07/19 11:20:05;;;;;;;4.57;3.93;;;;;;;27.09;38.04;95398.34;5073548;28;20452;-80
2022/07/19 11:22:36;;;;;;;5.90;4.07;;;;;;;27.22;39.02;95395.56;5073631;28;20819;-79
2022/07/19 11:25:05;;;;;;;3.57;3.30;;;;;;;27.39;37.92;95398.50;5073342;28;20441;-79
2022/07/19 11:27:33;;;;;;;7.67;3.33;;;;;;;27.57;37.20;95400.41;5005607;28;20516;-80
2022/07/19 11:30:01;;;;;;;3.70;3.40;;;;;;;27.66;39.17;95394.50;5073379;28;20484;-78
2022/07/19 11:32:28;;;;;;;3.97;3.53;;;;;;;27.71;37.39;95399.22;5073406;28;20441;-79
2022/07/19 11:34:58;;;;;;;5.63;3.67;;;;;;;27.41;37.40;95396.41;5073597;28;20446;-79
2022/07/19 11:37:27;;;;;;;6.57;3.30;;;;;;;27.27;36.67;95400.28;5073232;28;20451;-80
2022/07/19 11:39:54;;;;;;;3.37;3.17;;;;;;;27.35;37.07;95386.50;5073205;28;20510;-80
2022/07/19 11:42:32;;;;;;;3.43;3.13;;;;;;;27.40;37.16;95382.09;5054345;28;20454;-79